Fleetwood, Pennsylvania
Current Conditions -  °F | °C
As of 5:54 PM on Friday 19 Dec 2014 (Local Time) from KRDG Reporting Station
Broken Clouds Broken Clouds  
Wind Chill: 26°   Ceiling: 4200
Heat Index: 35°   Visibility: 10mi
Dew Point: 21°   Wind: 13mph
Humidity: 57%   Direction: 330°NNW
Pressure: 30.15"   Gusts: NA
Location:  40.45°N, 75.82°W
Report Text: KRDG 192254Z 33011KT 10SM BKN042 02/M06 A3015 RMK AO2 SLP219 T00171061
Loading
Personal Weather Stations






























Interactive Weather Map New forecast layout! Learn more

10-Day Weather Forecast

Advertisements
Track Severe Weather on mobile